createdAt,value
2022-09-02T00:00:14.854Z,45.60
2022-09-02T00:01:14.896Z,45.60
2022-09-02T00:02:14.938Z,45.44
2022-09-02T00:03:14.970Z,45.44
2022-09-02T00:04:14.815Z,45.12
2022-09-02T00:05:14.804Z,45.28
2022-09-02T00:06:14.801Z,45.28
2022-09-02T00:07:14.802Z,45.28
2022-09-02T00:08:14.790Z,45.60
2022-09-02T00:09:14.764Z,44.96
2022-09-02T00:10:14.758Z,45.12
2022-09-02T00:11:14.748Z,44.63
2022-09-02T00:12:14.737Z,45.76
2022-09-02T00:13:14.734Z,45.12
2022-09-02T00:14:14.736Z,45.12
2022-09-02T00:15:14.707Z,45.44
2022-09-02T00:16:14.762Z,45.76
2022-09-02T00:17:14.690Z,45.60
2022-09-02T00:18:15.415Z,45.44
2022-09-02T00:19:14.673Z,45.60
2022-09-02T00:20:14.663Z,45.76
2022-09-02T00:21:14.658Z,45.28
2022-09-02T00:22:14.644Z,45.28
2022-09-02T00:23:14.644Z,45.28
2022-09-02T00:24:14.621Z,45.44
2022-09-02T00:25:14.629Z,44.63
2022-09-02T00:26:14.605Z,45.28
2022-09-02T00:27:14.590Z,44.63
2022-09-02T00:28:14.598Z,45.44
2022-09-02T00:29:14.595Z,45.28
2022-09-02T00:30:14.565Z,44.31
2022-09-02T00:31:14.577Z,45.12
2022-09-02T00:32:14.535Z,44.96
2022-09-02T00:33:14.548Z,45.28
2022-09-02T00:34:14.520Z,45.28
2022-09-02T00:35:14.513Z,45.44
2022-09-02T00:36:14.497Z,45.44
2022-09-02T00:37:14.495Z,45.60
2022-09-02T00:38:14.491Z,45.44
2022-09-02T00:39:14.478Z,45.60
2022-09-02T00:40:14.557Z,45.12
2022-09-02T00:41:14.457Z,45.44
2022-09-02T00:42:14.440Z,45.44
2022-09-02T00:43:14.475Z,45.44
2022-09-02T00:44:14.437Z,45.12
2022-09-02T00:45:14.419Z,45.12
2022-09-02T00:46:14.446Z,45.12
2022-09-02T00:47:14.402Z,45.60
2022-09-02T00:48:14.403Z,45.44
2022-09-02T00:49:14.382Z,45.76
2022-09-02T00:50:14.372Z,45.28
2022-09-02T00:51:14.361Z,45.44
2022-09-02T00:52:14.351Z,45.12
2022-09-02T00:53:14.400Z,45.76
2022-09-02T00:54:14.335Z,45.76
2022-09-02T00:55:14.337Z,45.12
2022-09-02T00:56:14.312Z,45.28
2022-09-02T00:57:14.307Z,45.60
2022-09-02T00:58:14.384Z,45.28
2022-09-02T00:59:14.289Z,45.12
2022-09-02T01:00:14.269Z,45.60
2022-09-02T01:01:14.454Z,45.12
2022-09-02T01:02:14.353Z,45.60
2022-09-02T01:03:14.327Z,44.63
2022-09-02T01:04:14.239Z,45.44
2022-09-02T01:05:14.230Z,45.28
2022-09-02T01:06:14.246Z,45.28
2022-09-02T01:07:14.210Z,45.60
2022-09-02T01:08:14.207Z,45.12
2022-09-02T01:09:14.194Z,45.44
2022-09-02T01:10:14.176Z,45.92
2022-09-02T01:11:14.173Z,45.28
2022-09-02T01:12:14.170Z,45.44
2022-09-02T01:13:14.170Z,46.08
2022-09-02T01:14:14.143Z,45.76
2022-09-02T01:15:14.134Z,45.76
2022-09-02T01:16:14.140Z,45.44
2022-09-02T01:17:14.120Z,45.28
2022-09-02T01:18:14.121Z,45.28
2022-09-02T01:19:14.147Z,45.28
2022-09-02T01:20:14.085Z,45.44
2022-09-02T01:21:14.083Z,44.96
2022-09-02T01:22:14.071Z,45.12
2022-09-02T01:23:14.139Z,45.28
2022-09-02T01:24:14.049Z,45.76
2022-09-02T01:25:14.067Z,44.96
2022-09-02T01:26:14.031Z,45.44
2022-09-02T01:27:14.029Z,45.92
2022-09-02T01:28:14.028Z,45.44
2022-09-02T01:29:14.005Z,45.60
2022-09-02T01:30:14.023Z,45.44
2022-09-02T01:31:14.093Z,45.44
2022-09-02T01:32:13.979Z,45.60
2022-09-02T01:33:14.034Z,45.92
2022-09-02T01:34:13.955Z,44.96
2022-09-02T01:35:13.952Z,45.44
2022-09-02T01:36:13.935Z,45.60
2022-09-02T01:37:13.926Z,45.28
2022-09-02T01:38:13.944Z,45.92
2022-09-02T01:39:13.915Z,45.60
2022-09-02T01:40:13.944Z,44.96
2022-09-02T01:41:13.884Z,45.28
2022-09-02T01:42:13.875Z,45.76
2022-09-02T01:43:13.949Z,44.79
2022-09-02T01:44:13.854Z,45.60
2022-09-02T01:45:13.932Z,45.44
2022-09-02T01:46:13.884Z,45.44
2022-09-02T01:47:13.831Z,45.28
2022-09-02T01:48:13.870Z,45.60
2022-09-02T01:49:13.808Z,45.76
2022-09-02T01:50:13.803Z,44.96
2022-09-02T01:51:13.792Z,45.28
2022-09-02T01:52:13.778Z,45.44
2022-09-02T01:53:13.828Z,45.12
2022-09-02T01:54:13.760Z,45.12
2022-09-02T01:55:13.755Z,45.44
2022-09-02T01:56:13.746Z,44.96
2022-09-02T01:57:13.739Z,45.28
2022-09-02T01:58:13.739Z,44.79
2022-09-02T01:59:13.718Z,45.12
2022-09-02T02:00:13.714Z,44.96
2022-09-02T02:01:13.800Z,44.96
2022-09-02T02:02:13.729Z,44.96
2022-09-02T02:03:13.703Z,45.44
2022-09-02T02:04:13.739Z,45.12
2022-09-02T02:05:13.658Z,44.96
2022-09-02T02:06:13.641Z,45.28
2022-09-02T02:07:13.634Z,45.12
2022-09-02T02:08:13.633Z,45.60
2022-09-02T02:09:13.610Z,45.28
2022-09-02T02:10:13.647Z,45.28
2022-09-02T02:11:13.599Z,45.28
2022-09-02T02:12:13.582Z,44.96
2022-09-02T02:13:13.688Z,46.25
2022-09-02T02:14:13.562Z,45.28
2022-09-02T02:15:13.557Z,45.28
2022-09-02T02:16:13.586Z,45.28
2022-09-02T02:17:13.541Z,45.28
2022-09-02T02:18:13.543Z,45.28
2022-09-02T02:19:13.531Z,45.60
2022-09-02T02:20:13.511Z,45.28
2022-09-02T02:21:13.499Z,44.96
2022-09-02T02:22:13.486Z,45.60
2022-09-02T02:23:13.589Z,45.44
2022-09-02T02:24:13.475Z,45.28
2022-09-02T02:25:13.469Z,45.60
2022-09-02T02:26:13.525Z,45.60
2022-09-02T02:27:13.441Z,45.28
2022-09-02T02:28:13.441Z,45.28
2022-09-02T02:29:13.443Z,45.28
2022-09-02T02:30:13.415Z,45.44
2022-09-02T02:31:13.428Z,45.28
2022-09-02T02:32:13.391Z,45.76
2022-09-02T02:33:13.382Z,45.44
2022-09-02T02:34:13.386Z,44.63
2022-09-02T02:35:13.364Z,45.12
2022-09-02T02:36:13.358Z,45.44
2022-09-02T02:37:13.426Z,44.79
2022-09-02T02:38:14.433Z,45.28
2022-09-02T02:39:13.350Z,45.12
2022-09-02T02:40:13.338Z,44.96
2022-09-02T02:41:13.311Z,45.12
2022-09-02T02:42:13.301Z,45.28
2022-09-02T02:43:13.293Z,45.44
2022-09-02T02:44:13.293Z,45.12
2022-09-02T02:45:15.339Z,44.96
2022-09-02T02:46:13.291Z,45.44
2022-09-02T02:47:13.251Z,45.12
2022-09-02T02:48:13.237Z,45.28
2022-09-02T02:49:13.241Z,45.60
2022-09-02T02:50:13.249Z,44.79
2022-09-02T02:51:13.233Z,45.28
2022-09-02T02:52:13.217Z,45.28
2022-09-02T02:53:14.138Z,46.08
2022-09-02T02:54:13.196Z,45.28
2022-09-02T02:55:13.175Z,45.92
2022-09-02T02:56:13.164Z,44.96
2022-09-02T02:57:13.156Z,45.12
2022-09-02T02:58:13.143Z,45.12
2022-09-02T02:59:13.164Z,45.76
2022-09-02T03:00:13.120Z,45.12
2022-09-02T03:01:13.119Z,44.96
2022-09-02T03:02:13.244Z,44.96
2022-09-02T03:03:13.101Z,45.12
2022-09-02T03:04:13.100Z,45.12
2022-09-02T03:05:13.082Z,45.92
2022-09-02T03:06:13.071Z,45.44
2022-09-02T03:07:13.067Z,44.79
2022-09-02T03:08:13.045Z,45.28
2022-09-02T03:09:13.060Z,45.12
2022-09-02T03:10:13.104Z,45.44
2022-09-02T03:11:13.022Z,46.08
2022-09-02T03:12:13.010Z,45.76
2022-09-02T03:13:13.007Z,44.79
2022-09-02T03:14:12.998Z,45.44
2022-09-02T03:15:12.979Z,45.12
2022-09-02T03:16:12.987Z,45.92
2022-09-02T03:17:12.957Z,45.44
2022-09-02T03:18:12.948Z,45.44
2022-09-02T03:19:12.956Z,45.60
2022-09-02T03:20:12.924Z,45.44
2022-09-02T03:21:12.919Z,45.76
2022-09-02T03:22:12.931Z,45.60
2022-09-02T03:23:12.898Z,45.44
2022-09-02T03:24:12.900Z,45.60
2022-09-02T03:25:12.884Z,45.60
2022-09-02T03:26:12.870Z,45.12
2022-09-02T03:27:12.867Z,45.60
2022-09-02T03:28:12.847Z,45.44
2022-09-02T03:29:12.864Z,45.12
2022-09-02T03:30:12.875Z,45.60
2022-09-02T03:31:12.851Z,46.57
2022-09-02T03:32:12.812Z,45.76
2022-09-02T03:33:12.806Z,46.25
2022-09-02T03:34:12.809Z,45.44
2022-09-02T03:35:12.786Z,45.28
2022-09-02T03:36:12.774Z,45.60
2022-09-02T03:37:12.798Z,45.12
2022-09-02T03:38:12.751Z,45.12
2022-09-02T03:39:12.759Z,45.28
2022-09-02T03:40:12.777Z,45.28
2022-09-02T03:41:12.727Z,47.70
2022-09-02T03:42:19.217Z,46.41
2022-09-02T03:43:13.759Z,45.12
2022-09-02T03:44:12.702Z,45.92
2022-09-02T03:45:12.699Z,45.76
2022-09-02T03:46:12.719Z,48.34
2022-09-02T03:47:12.666Z,46.08
2022-09-02T03:48:12.656Z,46.41
2022-09-02T03:49:12.648Z,45.92
2022-09-02T03:50:12.741Z,46.25
2022-09-02T03:51:12.622Z,44.79
2022-09-02T03:52:12.606Z,45.12
2022-09-02T03:53:18.245Z,45.28
2022-09-02T03:54:12.589Z,49.47
2022-09-02T03:55:12.621Z,45.60
2022-09-02T03:56:13.105Z,45.92
2022-09-02T03:57:12.566Z,46.08
2022-09-02T03:58:12.555Z,44.96
2022-09-02T03:59:12.546Z,45.76
2022-09-02T04:00:12.673Z,45.60
2022-09-02T04:01:12.549Z,46.57
2022-09-02T04:02:12.658Z,45.12
2022-09-02T04:03:12.527Z,45.76
2022-09-02T04:04:12.490Z,45.60
2022-09-02T04:05:15.639Z,45.60
2022-09-02T04:06:12.469Z,46.41
2022-09-02T04:07:12.468Z,45.92
2022-09-02T04:08:12.453Z,46.25
2022-09-02T04:09:12.444Z,48.50
2022-09-02T04:10:12.445Z,48.50
2022-09-02T04:11:12.424Z,49.47
2022-09-02T04:12:12.415Z,46.25
2022-09-02T04:13:12.408Z,45.76
2022-09-02T04:14:12.408Z,48.66
2022-09-02T04:15:12.398Z,50.76
2022-09-02T04:16:12.415Z,46.73
2022-09-02T04:17:12.361Z,46.57
2022-09-02T04:18:12.353Z,47.53
2022-09-02T04:19:12.346Z,47.86
2022-09-02T04:20:12.356Z,47.70
2022-09-02T04:21:12.329Z,47.05
2022-09-02T04:22:12.318Z,45.28
2022-09-02T04:23:12.309Z,45.12
2022-09-02T04:24:12.302Z,47.05
2022-09-02T04:25:12.302Z,45.44
2022-09-02T04:26:12.341Z,47.53
2022-09-02T04:27:12.272Z,45.92
2022-09-02T04:28:12.269Z,45.44
2022-09-02T04:29:12.247Z,45.28
2022-09-02T04:30:12.256Z,46.08
2022-09-02T04:31:12.317Z,46.57
2022-09-02T04:32:12.224Z,46.73
2022-09-02T04:33:12.206Z,45.60
2022-09-02T04:34:12.197Z,45.76
2022-09-02T04:35:12.206Z,45.92
2022-09-02T04:36:12.808Z,48.66
2022-09-02T04:37:12.177Z,47.05
2022-09-02T04:38:12.166Z,45.92
2022-09-02T04:39:12.156Z,46.08
2022-09-02T04:40:12.231Z,50.27
2022-09-02T04:41:12.133Z,45.76
2022-09-02T04:42:12.124Z,49.15
2022-09-02T04:43:12.131Z,45.92
2022-09-02T04:44:12.122Z,47.70
2022-09-02T04:45:12.108Z,46.08
2022-09-02T04:46:12.268Z,46.25
2022-09-02T04:47:12.079Z,45.76
2022-09-02T04:48:12.081Z,49.95
2022-09-02T04:49:12.060Z,45.76
2022-09-02T04:50:12.064Z,49.79
2022-09-02T04:51:12.033Z,47.21
2022-09-02T04:52:12.040Z,47.86
2022-09-02T04:53:12.090Z,48.98
2022-09-02T04:54:12.015Z,47.86
2022-09-02T04:55:12.023Z,52.69
2022-09-02T04:56:12.018Z,47.05
2022-09-02T04:57:11.981Z,47.21
2022-09-02T04:58:11.971Z,46.73
2022-09-02T04:59:11.961Z,47.21
2022-09-02T05:00:11.971Z,45.92
2022-09-02T05:01:12.030Z,47.05
2022-09-02T05:02:12.105Z,50.43
2022-09-02T05:03:11.918Z,50.11
2022-09-02T05:04:11.944Z,49.15
2022-09-02T05:05:11.907Z,45.44
2022-09-02T05:06:11.897Z,46.41
2022-09-02T05:07:11.883Z,47.37
2022-09-02T05:08:11.904Z,53.82
2022-09-02T05:09:11.860Z,50.27
2022-09-02T05:10:11.874Z,48.34
2022-09-02T05:11:11.841Z,45.76
2022-09-02T05:12:11.838Z,52.69
2022-09-02T05:13:11.825Z,46.73
2022-09-02T05:14:11.816Z,46.41
2022-09-02T05:15:11.833Z,45.92
2022-09-02T05:16:11.847Z,46.08
2022-09-02T05:17:11.786Z,49.47
2022-09-02T05:18:11.778Z,51.24
2022-09-02T05:19:11.774Z,51.24
2022-09-02T05:20:11.776Z,50.60
2022-09-02T05:21:11.750Z,45.92
2022-09-02T05:22:11.741Z,45.60
2022-09-02T05:23:11.726Z,45.60
2022-09-02T05:24:11.724Z,44.47
2022-09-02T05:25:11.716Z,53.82
2022-09-02T05:26:11.707Z,46.08
2022-09-02T05:27:11.687Z,46.73
2022-09-02T05:28:11.696Z,44.47
2022-09-02T05:29:11.665Z,45.28
2022-09-02T05:30:11.678Z,45.12
2022-09-02T05:31:11.704Z,45.76
2022-09-02T05:32:11.640Z,45.44
2022-09-02T05:33:13.596Z,45.28
2022-09-02T05:34:11.619Z,47.05
2022-09-02T05:35:11.640Z,49.31
2022-09-02T05:36:11.604Z,45.92
2022-09-02T05:37:11.596Z,48.34
2022-09-02T05:38:11.581Z,50.76
2022-09-02T05:39:11.578Z,45.28
2022-09-02T05:40:11.646Z,46.73
2022-09-02T05:41:11.542Z,46.89
2022-09-02T05:42:11.550Z,48.98
2022-09-02T05:43:11.532Z,50.27
2022-09-02T05:44:11.530Z,48.18
2022-09-02T05:45:11.526Z,47.05
2022-09-02T05:46:11.773Z,49.95
2022-09-02T05:47:11.491Z,46.73
2022-09-02T05:48:11.498Z,44.63
2022-09-02T05:49:11.491Z,45.12
2022-09-02T05:50:11.477Z,45.76
2022-09-02T05:51:11.448Z,47.53
2022-09-02T05:52:11.445Z,45.28
2022-09-02T05:53:14.716Z,45.12
2022-09-02T05:54:11.422Z,45.12
2022-09-02T05:55:11.698Z,45.60
2022-09-02T05:56:11.406Z,45.12
2022-09-02T05:57:11.391Z,45.44
2022-09-02T05:58:11.384Z,45.44
2022-09-02T05:59:11.378Z,46.89
2022-09-02T06:00:11.388Z,45.44
2022-09-02T06:01:12.356Z,45.28
2022-09-02T06:02:11.583Z,46.41
2022-09-02T06:03:11.380Z,49.79
2022-09-02T06:04:11.324Z,49.47
2022-09-02T06:05:11.311Z,50.76
2022-09-02T06:06:11.315Z,44.96
2022-09-02T06:07:11.774Z,48.34
2022-09-02T06:08:11.290Z,47.37
2022-09-02T06:09:11.275Z,47.70
2022-09-02T06:10:11.268Z,48.66
2022-09-02T06:11:11.267Z,49.15
2022-09-02T06:12:11.249Z,45.60
2022-09-02T06:13:11.237Z,45.28
2022-09-02T06:14:11.229Z,48.02
2022-09-02T06:15:11.211Z,45.92
2022-09-02T06:16:11.285Z,45.60
2022-09-02T06:17:11.194Z,43.67
2022-09-02T06:18:11.187Z,46.25
2022-09-02T06:19:11.167Z,44.63
2022-09-02T06:20:11.949Z,47.37
2022-09-02T06:21:11.170Z,46.89
2022-09-02T06:22:11.532Z,45.44
2022-09-02T06:23:11.129Z,44.96
2022-09-02T06:24:11.126Z,49.95
2022-09-02T06:25:11.112Z,45.44
2022-09-02T06:26:11.124Z,49.63
2022-09-02T06:27:11.101Z,45.92
2022-09-02T06:28:11.087Z,45.76
2022-09-02T06:29:11.085Z,46.08
2022-09-02T06:30:11.103Z,52.85
2022-09-02T06:31:11.120Z,52.37
2022-09-02T06:32:11.050Z,48.18
2022-09-02T06:33:11.039Z,46.89
2022-09-02T06:34:11.022Z,45.76
2022-09-02T06:35:11.023Z,45.60
2022-09-02T06:36:11.089Z,50.76
2022-09-02T06:37:10.996Z,45.76
2022-09-02T06:38:10.989Z,47.05
2022-09-02T06:39:10.977Z,46.08
2022-09-02T06:40:11.153Z,45.28
2022-09-02T06:41:10.954Z,47.53
2022-09-02T06:42:10.956Z,46.25
2022-09-02T06:43:10.940Z,48.82
2022-09-02T06:44:10.927Z,46.89
2022-09-02T06:45:10.929Z,47.05
2022-09-02T06:46:10.970Z,48.18
2022-09-02T06:47:10.899Z,46.57
2022-09-02T06:48:10.888Z,46.73
2022-09-02T06:49:10.876Z,46.41
2022-09-02T06:50:10.868Z,45.60
2022-09-02T06:51:10.865Z,47.21
2022-09-02T06:52:10.862Z,47.70
2022-09-02T06:53:10.836Z,47.86
2022-09-02T06:54:10.903Z,49.15
2022-09-02T06:55:10.821Z,46.41
2022-09-02T06:56:10.832Z,45.60
2022-09-02T06:57:10.808Z,47.53
2022-09-02T06:58:10.791Z,45.28
2022-09-02T06:59:10.785Z,48.18
2022-09-02T07:00:10.774Z,45.92
2022-09-02T07:01:10.866Z,48.50
2022-09-02T07:02:10.940Z,47.37
2022-09-02T07:03:10.734Z,48.34
2022-09-02T07:04:10.730Z,46.25
2022-09-02T07:05:10.723Z,46.73
2022-09-02T07:06:10.717Z,43.18
2022-09-02T07:07:10.697Z,42.70
2022-09-02T07:08:10.692Z,50.43
2022-09-02T07:09:10.718Z,45.92
2022-09-02T07:10:10.683Z,45.92
2022-09-02T07:11:10.670Z,45.44
2022-09-02T07:12:10.649Z,44.96
2022-09-02T07:13:10.633Z,45.76
2022-09-02T07:14:10.629Z,43.83
2022-09-02T07:15:10.625Z,43.02
2022-09-02T07:16:10.661Z,42.86
2022-09-02T07:17:10.638Z,44.15
2022-09-02T07:18:10.583Z,43.51
2022-09-02T07:19:15.021Z,47.05
2022-09-02T07:20:11.567Z,41.73
2022-09-02T07:21:10.566Z,42.86
2022-09-02T07:22:10.547Z,42.06
2022-09-02T07:23:10.530Z,45.76
2022-09-02T07:24:10.527Z,43.02
2022-09-02T07:25:10.509Z,43.34
2022-09-02T07:26:10.582Z,42.38
2022-09-02T07:27:10.493Z,42.54
2022-09-02T07:28:10.494Z,43.99
2022-09-02T07:29:10.475Z,51.56
2022-09-02T07:30:10.468Z,48.66
2022-09-02T07:31:10.489Z,43.51
2022-09-02T07:32:10.449Z,45.92
2022-09-02T07:33:10.434Z,48.18
2022-09-02T07:34:10.427Z,44.31
2022-09-02T07:35:10.417Z,44.96
2022-09-02T07:36:11.148Z,43.34
2022-09-02T07:37:11.091Z,42.86
2022-09-02T07:38:10.389Z,42.54
2022-09-02T07:39:10.374Z,44.96
2022-09-02T07:40:10.414Z,43.34
2022-09-02T07:41:10.384Z,44.47
2022-09-02T07:42:10.349Z,43.51
2022-09-02T07:43:10.338Z,44.96
2022-09-02T07:44:10.325Z,44.31
2022-09-02T07:45:10.318Z,46.73
2022-09-02T07:46:10.399Z,45.92
2022-09-02T07:47:10.295Z,48.82
2022-09-02T07:48:10.293Z,44.47
2022-09-02T07:49:10.277Z,42.54
2022-09-02T07:50:20.091Z,45.44
2022-09-02T07:51:11.274Z,42.38
2022-09-02T07:52:10.253Z,44.96
2022-09-02T07:53:10.240Z,43.34
2022-09-02T07:54:10.235Z,46.89
2022-09-02T07:55:14.499Z,44.63
2022-09-02T07:56:10.227Z,44.31
2022-09-02T07:57:10.202Z,46.73
2022-09-02T07:58:10.192Z,44.31
2022-09-02T07:59:11.184Z,49.47
2022-09-02T08:00:10.178Z,45.76
2022-09-02T08:01:10.294Z,42.54
2022-09-02T08:02:10.194Z,43.51
2022-09-02T08:03:10.212Z,42.70
2022-09-02T08:04:10.133Z,45.28
2022-09-02T08:05:10.136Z,44.15
2022-09-02T08:06:10.141Z,46.57
2022-09-02T08:07:10.122Z,43.67
2022-09-02T08:08:10.111Z,44.47
2022-09-02T08:09:10.090Z,46.08
2022-09-02T08:10:10.081Z,47.21
2022-09-02T08:11:10.087Z,45.44
2022-09-02T08:12:10.063Z,49.31
2022-09-02T08:13:10.053Z,43.83
2022-09-02T08:14:10.047Z,49.63
2022-09-02T08:15:10.027Z,46.08
2022-09-02T08:16:10.116Z,44.15
2022-09-02T08:17:10.013Z,43.51
2022-09-02T08:18:14.465Z,42.54
2022-09-02T08:19:10.985Z,43.99
2022-09-02T08:20:12.434Z,44.63
2022-09-02T08:21:09.991Z,44.96
2022-09-02T08:22:09.968Z,47.21
2022-09-02T08:23:18.449Z,43.34
2022-09-02T08:24:10.951Z,51.08
2022-09-02T08:25:09.931Z,46.73
2022-09-02T08:26:09.960Z,42.86
2022-09-02T08:27:09.931Z,44.47
2022-09-02T08:28:09.908Z,44.31
2022-09-02T08:29:09.894Z,47.86
2022-09-02T08:30:09.932Z,45.60
2022-09-02T08:31:09.898Z,46.41
2022-09-02T08:32:09.925Z,43.18
2022-09-02T08:33:09.858Z,44.15
2022-09-02T08:34:09.859Z,43.34
2022-09-02T08:35:09.835Z,44.96
2022-09-02T08:36:09.846Z,47.53
2022-09-02T08:37:09.820Z,45.28
2022-09-02T08:38:09.814Z,47.05
2022-09-02T08:39:09.813Z,46.25
2022-09-02T08:40:09.864Z,45.44
2022-09-02T08:41:09.798Z,44.63
2022-09-02T08:42:09.774Z,43.99
2022-09-02T08:43:09.767Z,46.57
2022-09-02T08:44:09.872Z,43.99
2022-09-02T08:45:09.735Z,44.47
2022-09-02T08:46:09.859Z,44.47
2022-09-02T08:47:09.724Z,44.47
2022-09-02T08:48:09.738Z,46.57
2022-09-02T08:49:09.702Z,43.83
2022-09-02T08:50:09.708Z,44.47
2022-09-02T08:51:10.043Z,44.79
2022-09-02T08:52:09.670Z,45.44
2022-09-02T08:53:09.661Z,43.51
2022-09-02T08:54:09.649Z,44.96
2022-09-02T08:55:09.644Z,47.21
2022-09-02T08:56:09.632Z,44.47
2022-09-02T08:57:09.685Z,47.70
2022-09-02T08:58:09.620Z,44.96
2022-09-02T08:59:09.602Z,44.15
2022-09-02T09:00:09.590Z,48.18
2022-09-02T09:01:09.668Z,44.79
2022-09-02T09:02:09.665Z,43.67
2022-09-02T09:03:09.565Z,43.02
2022-09-02T09:04:09.581Z,43.67
2022-09-02T09:05:09.545Z,47.05
2022-09-02T09:06:09.541Z,44.47
2022-09-02T09:07:09.552Z,42.86
2022-09-02T09:08:12.382Z,42.54
2022-09-02T09:09:10.506Z,42.38
2022-09-02T09:10:09.501Z,42.70
2022-09-02T09:11:09.497Z,47.86
2022-09-02T09:12:09.488Z,44.79
2022-09-02T09:13:09.477Z,41.41
2022-09-02T09:14:09.474Z,41.41
2022-09-02T09:15:09.456Z,43.51
2022-09-02T09:16:09.492Z,44.79
2022-09-02T09:17:09.465Z,41.09
2022-09-02T09:18:09.444Z,41.41
2022-09-02T09:19:09.433Z,43.18
2022-09-02T09:20:09.421Z,48.82
2022-09-02T09:21:10.377Z,43.18
2022-09-02T09:22:09.662Z,47.21
2022-09-02T09:23:09.431Z,42.06
2022-09-02T09:24:09.363Z,41.89
2022-09-02T09:25:09.387Z,43.67
2022-09-02T09:26:09.352Z,42.54
2022-09-02T09:27:09.350Z,46.08
2022-09-02T09:28:09.343Z,42.22
2022-09-02T09:29:09.320Z,44.15
2022-09-02T09:30:14.319Z,47.53
2022-09-02T09:31:09.453Z,39.96
2022-09-02T09:32:09.330Z,41.73
2022-09-02T09:33:09.283Z,39.48
2022-09-02T09:34:09.267Z,41.09
2022-09-02T09:35:09.258Z,41.57
2022-09-02T09:36:09.251Z,40.77
2022-09-02T09:37:09.265Z,43.02
2022-09-02T09:38:09.248Z,41.09
2022-09-02T09:39:09.224Z,44.63
2022-09-02T09:40:09.230Z,41.41
2022-09-02T09:41:09.203Z,39.80
2022-09-02T09:42:09.558Z,42.22
2022-09-02T09:43:14.179Z,40.28
2022-09-02T09:44:10.172Z,39.96
2022-09-02T09:45:09.169Z,43.99
2022-09-02T09:46:09.196Z,43.99
2022-09-02T09:47:09.169Z,42.38
2022-09-02T09:48:09.140Z,40.28
2022-09-02T09:49:09.136Z,46.89
2022-09-02T09:50:09.196Z,41.73
2022-09-02T09:51:09.191Z,43.83
2022-09-02T09:52:09.125Z,42.06
2022-09-02T09:53:09.103Z,42.54
2022-09-02T09:54:09.084Z,43.18
2022-09-02T09:55:11.547Z,45.44
2022-09-02T09:56:09.071Z,45.92
2022-09-02T09:57:09.083Z,39.80
2022-09-02T09:58:09.046Z,45.92
2022-09-02T09:59:09.085Z,39.16
2022-09-02T10:00:09.032Z,41.89
2022-09-02T10:01:09.062Z,41.57
2022-09-02T10:02:09.015Z,37.22
2022-09-02T10:03:09.012Z,37.71
2022-09-02T10:04:32.319Z,46.73
2022-09-02T10:05:09.976Z,39.96
2022-09-02T10:06:08.963Z,39.64
2022-09-02T10:07:08.961Z,42.54
2022-09-02T10:08:10.852Z,36.25
2022-09-02T10:09:09.936Z,36.25
2022-09-02T10:10:08.930Z,43.99
2022-09-02T10:11:08.916Z,36.58
2022-09-02T10:12:08.909Z,38.19
2022-09-02T10:13:09.016Z,39.80
2022-09-02T10:14:08.896Z,33.35
2022-09-02T10:15:08.885Z,35.45
2022-09-02T10:16:08.917Z,38.83
2022-09-02T10:17:08.866Z,41.09
2022-09-02T10:18:08.867Z,36.09
2022-09-02T10:19:08.841Z,36.25
2022-09-02T10:20:08.831Z,37.54
2022-09-02T10:21:15.418Z,39.96
2022-09-02T10:22:09.817Z,43.51
2022-09-02T10:23:08.821Z,38.35
2022-09-02T10:24:08.795Z,33.68
2022-09-02T10:25:08.792Z,36.25
2022-09-02T10:26:08.783Z,39.64
2022-09-02T10:27:08.788Z,43.02
2022-09-02T10:28:08.758Z,39.32
2022-09-02T10:29:08.751Z,40.61
2022-09-02T10:30:08.738Z,42.06
2022-09-02T10:31:08.787Z,40.77
2022-09-02T10:32:08.741Z,41.09
2022-09-02T10:33:08.717Z,42.38
2022-09-02T10:34:08.704Z,44.15
2022-09-02T10:35:08.697Z,42.86
2022-09-02T10:36:08.687Z,48.50
2022-09-02T10:37:08.688Z,43.34
2022-09-02T10:38:08.717Z,41.09
2022-09-02T10:39:08.661Z,38.03
2022-09-02T10:40:08.743Z,39.64
2022-09-02T10:41:08.639Z,40.77
2022-09-02T10:42:08.651Z,43.02
2022-09-02T10:43:08.620Z,39.80
2022-09-02T10:44:08.616Z,37.71
2022-09-02T10:45:08.608Z,37.22
2022-09-02T10:46:08.590Z,37.87
2022-09-02T10:47:08.586Z,42.54
2022-09-02T10:48:08.642Z,50.11
2022-09-02T10:49:08.559Z,50.11
2022-09-02T10:50:08.551Z,45.28
2022-09-02T10:51:08.543Z,37.87
2022-09-02T10:52:08.567Z,40.28
2022-09-02T10:53:09.597Z,45.28
2022-09-02T10:54:08.507Z,45.92
2022-09-02T10:55:08.506Z,43.34
2022-09-02T10:56:08.491Z,45.60
2022-09-02T10:57:08.486Z,38.03
2022-09-02T10:58:08.480Z,45.76
2022-09-02T10:59:08.463Z,47.53
2022-09-02T11:00:08.451Z,42.06
2022-09-02T11:01:08.498Z,42.22
2022-09-02T11:02:08.432Z,40.28
2022-09-02T11:03:08.787Z,38.83
2022-09-02T11:04:08.408Z,40.12
2022-09-02T11:05:08.402Z,41.89
2022-09-02T11:06:08.394Z,47.37
2022-09-02T11:07:08.384Z,39.16
2022-09-02T11:08:08.389Z,40.12
2022-09-02T11:09:08.365Z,42.22
2022-09-02T11:10:08.353Z,40.28
2022-09-02T11:11:08.344Z,44.63
2022-09-02T11:12:08.329Z,41.25
2022-09-02T11:13:08.339Z,45.44
2022-09-02T11:14:08.338Z,46.41
2022-09-02T11:15:08.308Z,41.41
2022-09-02T11:16:08.353Z,41.89
2022-09-02T11:17:13.168Z,44.79
2022-09-02T11:18:09.318Z,46.25
2022-09-02T11:19:08.274Z,42.70
2022-09-02T11:20:08.256Z,43.99
2022-09-02T11:21:08.253Z,45.60
2022-09-02T11:22:08.242Z,45.12
2022-09-02T11:23:08.248Z,45.44
2022-09-02T11:24:08.223Z,40.77
2022-09-02T11:25:08.233Z,42.22
2022-09-02T11:26:08.200Z,44.79
2022-09-02T11:27:25.491Z,43.67
2022-09-02T11:28:09.194Z,48.02
2022-09-02T11:29:08.185Z,44.96
2022-09-02T11:30:08.181Z,42.38
2022-09-02T11:31:08.165Z,43.02
2022-09-02T11:32:08.155Z,46.89
2022-09-02T11:33:08.160Z,42.06
2022-09-02T11:34:08.160Z,41.09
2022-09-02T11:35:08.129Z,39.48
2022-09-02T11:36:08.246Z,40.12
2022-09-02T11:37:08.107Z,38.67
2022-09-02T11:38:08.106Z,43.34
2022-09-02T11:39:08.105Z,40.77
2022-09-02T11:40:30.592Z,40.28
2022-09-02T11:42:09.086Z,46.41
2022-09-02T11:43:08.066Z,43.99
2022-09-02T11:44:08.037Z,43.02
2022-09-02T11:45:08.056Z,42.70
2022-09-02T11:46:08.040Z,45.44
2022-09-02T11:47:08.019Z,42.54
2022-09-02T11:48:08.018Z,41.25
2022-09-02T11:49:08.387Z,42.38
2022-09-02T11:50:07.975Z,40.44
2022-09-02T11:51:08.029Z,44.31
2022-09-02T11:52:07.957Z,43.34
2022-09-02T11:53:07.970Z,44.63
2022-09-02T11:54:07.939Z,43.18
2022-09-02T11:55:07.931Z,46.57
2022-09-02T11:56:07.921Z,46.89
2022-09-02T11:57:07.939Z,38.99
2022-09-02T11:58:07.926Z,38.35
2022-09-02T11:59:07.897Z,38.99
2022-09-02T12:00:07.880Z,44.15
2022-09-02T12:01:07.881Z,40.28
2022-09-02T12:02:07.860Z,44.63
2022-09-02T12:03:22.338Z,41.09
2022-09-02T12:05:09.234Z,41.57
2022-09-02T12:06:07.902Z,43.83
2022-09-02T12:07:08.964Z,43.18
2022-09-02T12:08:07.807Z,41.73
2022-09-02T12:09:07.812Z,41.25
2022-09-02T12:10:07.784Z,42.70
2022-09-02T12:11:07.775Z,42.38
2022-09-02T12:12:07.766Z,43.34
2022-09-02T12:13:08.386Z,45.44
2022-09-02T12:14:08.189Z,42.06
2022-09-02T12:15:07.745Z,47.70
2022-09-02T12:16:07.766Z,40.12
2022-09-02T12:17:07.726Z,41.09
2022-09-02T12:18:07.722Z,42.86
2022-09-02T12:19:07.882Z,41.73
2022-09-02T12:20:07.689Z,43.02
2022-09-02T12:21:07.683Z,43.51
2022-09-02T12:22:07.698Z,44.63
2022-09-02T12:23:07.679Z,40.44
2022-09-02T12:24:07.655Z,38.67
2022-09-02T12:25:07.643Z,36.74
2022-09-02T12:26:07.636Z,38.03
2022-09-02T12:27:07.625Z,38.35
2022-09-02T12:28:07.636Z,42.06
2022-09-02T12:29:07.612Z,36.25
2022-09-02T12:30:07.601Z,37.54
2022-09-02T12:31:07.880Z,39.32
2022-09-02T12:32:07.579Z,35.45
2022-09-02T12:33:07.585Z,35.77
2022-09-02T12:34:07.563Z,39.48
2022-09-02T12:35:07.555Z,34.97
2022-09-02T12:36:07.550Z,36.42
2022-09-02T12:37:07.537Z,40.28
2022-09-02T12:38:07.548Z,42.22
2022-09-02T12:39:09.885Z,36.58
2022-09-02T12:40:07.648Z,38.99
2022-09-02T12:41:07.729Z,43.34
2022-09-02T12:42:07.495Z,42.86
2022-09-02T12:43:07.500Z,38.67
2022-09-02T12:44:07.467Z,37.54
2022-09-02T12:45:07.468Z,39.48
2022-09-02T12:46:07.494Z,37.54
2022-09-02T12:47:07.445Z,36.09
2022-09-02T12:48:07.446Z,39.32
2022-09-02T12:49:07.428Z,40.77
2022-09-02T12:50:07.417Z,38.03
2022-09-02T12:51:07.421Z,43.67
2022-09-02T12:52:07.402Z,34.80
2022-09-02T12:53:07.413Z,36.25
2022-09-02T12:54:07.380Z,35.93